createdAt,value
2022-09-26T00:01:46.367Z,5.65
2022-09-26T00:04:48.292Z,7.47
2022-09-26T00:07:50.105Z,14.48
2022-09-26T00:10:59.176Z,8.40
2022-09-26T00:14:03.268Z,8.32
2022-09-26T00:17:05.156Z,8.98
2022-09-26T00:20:07.365Z,7.65
2022-09-26T00:23:12.123Z,9.05
2022-09-26T00:26:14.685Z,8.00
2022-09-26T00:32:18.717Z,7.53
2022-09-26T00:35:21.219Z,9.02
2022-09-26T00:38:23.223Z,7.80
2022-09-26T00:41:25.079Z,5.82
2022-09-26T00:44:50.509Z,5.37
2022-09-26T00:47:58.093Z,4.78
2022-09-26T00:50:59.930Z,5.50
2022-09-26T00:54:01.784Z,7.30
2022-09-26T00:57:12.557Z,7.65
2022-09-26T01:00:15.803Z,6.85
2022-09-26T01:03:17.721Z,8.88
2022-09-26T01:06:19.585Z,8.38
2022-09-26T01:09:21.448Z,9.57
2022-09-26T01:12:23.385Z,7.43
2022-09-26T01:15:25.395Z,9.23
2022-09-26T01:18:27.608Z,6.80
2022-09-26T01:21:48.002Z,6.95
2022-09-26T01:25:07.546Z,7.05
2022-09-26T01:28:12.398Z,8.00
2022-09-26T01:31:34.739Z,7.45
2022-09-26T01:34:51.627Z,9.95
2022-09-26T01:38:13.233Z,9.68
2022-09-26T01:41:34.067Z,7.65
2022-09-26T01:44:41.053Z,8.32
2022-09-26T01:47:55.657Z,7.28
2022-09-26T01:51:05.303Z,9.27
2022-09-26T01:54:11.392Z,7.70
2022-09-26T01:57:17.680Z,8.02
2022-09-26T02:00:19.788Z,7.80
2022-09-26T02:03:23.063Z,7.60
2022-09-26T02:06:33.892Z,8.60
2022-09-26T02:09:45.948Z,6.65
2022-09-26T02:12:55.055Z,7.13
2022-09-26T02:16:00.531Z,5.95
2022-09-26T02:19:20.258Z,7.10
2022-09-26T02:22:22.784Z,7.78
2022-09-26T02:28:26.608Z,9.93
2022-09-26T02:31:31.870Z,8.43
2022-09-26T02:34:33.705Z,5.53
2022-09-26T02:37:37.161Z,6.00
2022-09-26T02:40:56.576Z,10.02
2022-09-26T02:44:12.735Z,10.88
2022-09-26T02:47:37.363Z,10.38
2022-09-26T02:51:17.797Z,8.18
2022-09-26T02:54:46.581Z,7.90
2022-09-26T02:57:55.723Z,6.07
2022-09-26T03:01:25.942Z,10.50
2022-09-26T03:05:03.943Z,11.02
2022-09-26T03:08:12.193Z,11.07
2022-09-26T03:11:17.186Z,7.00
2022-09-26T03:14:21.193Z,9.75
2022-09-26T03:17:23.491Z,6.82
2022-09-26T03:23:30.117Z,8.60
2022-09-26T03:26:37.020Z,8.50
2022-09-26T03:29:39.142Z,7.25
2022-09-26T03:32:43.913Z,11.40
2022-09-26T03:35:46.010Z,9.90
2022-09-26T03:38:47.950Z,9.40
2022-09-26T03:42:09.059Z,9.32
2022-09-26T03:45:11.391Z,6.43
2022-09-26T03:48:34.618Z,7.47
2022-09-26T03:51:37.290Z,13.40
2022-09-26T03:54:39.309Z,10.13
2022-09-26T03:57:41.172Z,7.40
2022-09-26T04:00:53.814Z,6.15
2022-09-26T04:03:56.595Z,10.10
2022-09-26T04:06:59.106Z,8.77
2022-09-26T04:10:02.028Z,8.68
2022-09-26T04:13:03.930Z,8.43
2022-09-26T04:16:06.514Z,7.67
2022-09-26T04:19:08.783Z,7.30
2022-09-26T04:22:10.882Z,7.28
2022-09-26T04:25:13.213Z,6.63
2022-09-26T04:28:15.193Z,8.65
2022-09-26T04:31:17.140Z,5.60
2022-09-26T04:34:27.467Z,5.78
2022-09-26T04:37:30.279Z,4.45
2022-09-26T04:40:32.340Z,4.22
2022-09-26T04:43:39.332Z,4.68
2022-09-26T04:46:44.614Z,3.83
2022-09-26T04:52:48.886Z,3.30
2022-09-26T04:55:54.413Z,3.72
2022-09-26T04:58:56.945Z,3.78
2022-09-26T05:02:08.343Z,2.35
2022-09-26T05:05:16.144Z,3.22
2022-09-26T05:08:18.139Z,3.13
2022-09-26T05:11:21.555Z,4.13
2022-09-26T05:14:23.537Z,4.88
2022-09-26T05:17:25.505Z,4.78
2022-09-26T05:20:31.582Z,4.03
2022-09-26T05:23:55.744Z,5.55
2022-09-26T05:26:57.592Z,7.03
2022-09-26T05:29:59.570Z,6.80
2022-09-26T05:33:02.355Z,6.75
2022-09-26T05:36:05.013Z,7.38
2022-09-26T05:39:26.898Z,5.25
2022-09-26T05:42:28.884Z,6.17
2022-09-26T05:45:31.363Z,6.40
2022-09-26T05:48:35.703Z,5.43
2022-09-26T05:51:41.343Z,5.70
2022-09-26T05:54:45.259Z,5.50
2022-09-26T05:58:07.664Z,7.43
2022-09-26T06:01:42.128Z,7.97
2022-09-26T06:04:57.865Z,9.27
2022-09-26T06:08:18.427Z,5.82
2022-09-26T06:11:28.010Z,6.68
2022-09-26T06:14:29.854Z,5.88
2022-09-26T06:17:31.768Z,8.25
2022-09-26T06:20:33.898Z,5.13
2022-09-26T06:23:35.901Z,5.43
2022-09-26T06:26:39.500Z,6.22
2022-09-26T06:29:41.427Z,5.15
2022-09-26T06:32:44.282Z,4.15
2022-09-26T06:36:06.420Z,4.22
2022-09-26T06:39:10.609Z,5.20
2022-09-26T06:42:12.478Z,6.43
2022-09-26T06:45:26.680Z,7.05
2022-09-26T06:48:44.922Z,4.50
2022-09-26T06:52:02.689Z,3.65
2022-09-26T06:55:06.857Z,5.30
2022-09-26T06:58:08.851Z,5.43
2022-09-26T07:01:24.139Z,3.75
2022-09-26T07:04:49.621Z,5.85
2022-09-26T07:07:57.496Z,3.83
2022-09-26T07:11:27.932Z,5.18
2022-09-26T07:14:23.800Z,6.07
2022-09-26T07:17:30.541Z,3.38
2022-09-26T07:20:56.653Z,6.47
2022-09-26T07:24:21.775Z,3.47
2022-09-26T07:27:23.632Z,5.68
2022-09-26T07:30:25.814Z,4.47
2022-09-26T07:33:33.896Z,4.80
2022-09-26T07:36:40.757Z,5.05
2022-09-26T07:39:43.867Z,8.13
2022-09-26T07:43:04.022Z,4.97
2022-09-26T07:46:27.142Z,5.18
2022-09-26T07:49:49.822Z,8.00
2022-09-26T07:53:09.782Z,7.18
2022-09-26T07:56:34.560Z,17.70
2022-09-26T08:00:13.419Z,7.68
2022-09-26T08:03:32.502Z,7.88
2022-09-26T08:06:37.298Z,15.32
2022-09-26T08:09:39.115Z,6.63
2022-09-26T08:13:06.794Z,6.03
2022-09-26T08:16:31.586Z,11.27
2022-09-26T08:19:37.324Z,9.95
2022-09-26T08:22:39.258Z,10.45
2022-09-26T08:25:42.019Z,9.40
2022-09-26T08:29:09.548Z,9.48
2022-09-26T08:32:11.390Z,9.75
2022-09-26T08:35:15.010Z,13.13
2022-09-26T08:38:50.042Z,9.35
2022-09-26T08:42:29.624Z,12.60
2022-09-26T08:46:12.161Z,12.60
2022-09-26T08:49:25.843Z,13.07
2022-09-26T08:52:53.960Z,12.63
2022-09-26T08:55:57.145Z,13.18
2022-09-26T08:58:59.610Z,10.20
2022-09-26T09:02:11.228Z,12.38
2022-09-26T09:05:42.998Z,13.50
2022-09-26T09:08:46.805Z,14.98
2022-09-26T09:12:14.527Z,16.33
2022-09-26T09:15:26.919Z,15.20
2022-09-26T09:19:05.819Z,15.18
2022-09-26T09:22:45.020Z,12.30
2022-09-26T09:30:16.835Z,16.83
2022-09-26T09:34:00.469Z,14.20
2022-09-26T09:37:16.292Z,15.25
2022-09-26T09:41:05.488Z,18.42
2022-09-26T09:44:19.740Z,20.58
2022-09-26T09:47:21.625Z,16.80
2022-09-26T09:50:34.396Z,16.15
2022-09-26T09:54:01.990Z,20.92
2022-09-26T09:57:33.799Z,23.35
2022-09-26T10:00:51.008Z,25.15
2022-09-26T10:04:38.284Z,20.27
2022-09-26T10:07:40.225Z,20.30
2022-09-26T10:11:24.198Z,16.17
2022-09-26T10:14:41.513Z,15.85
2022-09-26T10:18:00.787Z,21.60
2022-09-26T10:21:16.420Z,18.35
2022-09-26T10:24:34.205Z,19.30
2022-09-26T10:27:56.392Z,18.88
2022-09-26T10:31:03.894Z,19.35
2022-09-26T10:34:28.132Z,25.83
2022-09-26T10:37:30.369Z,23.17
2022-09-26T10:40:48.587Z,19.85
2022-09-26T10:43:55.809Z,18.10
2022-09-26T10:47:19.020Z,22.10
2022-09-26T10:50:55.906Z,27.35
2022-09-26T10:54:21.577Z,20.23
2022-09-26T10:57:28.248Z,26.08
2022-09-26T11:00:37.126Z,18.88
2022-09-26T11:03:44.129Z,21.73
2022-09-26T11:06:58.116Z,22.38
2022-09-26T11:10:17.577Z,21.15
2022-09-26T11:14:03.454Z,21.65
2022-09-26T11:17:09.036Z,20.75
2022-09-26T11:20:17.599Z,22.30
2022-09-26T11:23:31.925Z,19.83
2022-09-26T11:26:40.387Z,18.80
2022-09-26T11:29:44.118Z,15.60
2022-09-26T11:32:56.370Z,15.55
2022-09-26T11:36:37.258Z,21.02
2022-09-26T11:40:08.582Z,15.45
2022-09-26T11:43:58.170Z,16.92
2022-09-26T11:47:56.011Z,14.25
2022-09-26T11:51:49.957Z,14.07
2022-09-26T11:55:02.038Z,15.40
2022-09-26T11:58:14.917Z,13.82
2022-09-26T12:01:30.476Z,12.40
2022-09-26T12:04:45.356Z,9.95
2022-09-26T12:07:56.320Z,13.73
2022-09-26T12:11:09.916Z,10.95
2022-09-26T12:14:28.206Z,11.35
2022-09-26T12:17:52.526Z,11.60
2022-09-26T12:21:12.567Z,12.40
2022-09-26T12:24:27.660Z,10.48
2022-09-26T12:27:43.479Z,12.20
2022-09-26T12:31:09.673Z,13.13
2022-09-26T12:34:29.648Z,10.68
2022-09-26T12:37:39.309Z,10.20
2022-09-26T12:40:41.203Z,12.52
2022-09-26T12:43:59.097Z,8.50
2022-09-26T12:47:04.873Z,9.50
2022-09-26T12:50:12.985Z,7.53
2022-09-26T12:53:24.779Z,6.00
2022-09-26T12:56:57.964Z,5.47
2022-09-26T13:00:21.678Z,5.93
2022-09-26T13:03:36.408Z,7.07
2022-09-26T13:07:14.676Z,6.22
2022-09-26T13:10:22.169Z,8.98
2022-09-26T13:13:36.792Z,4.35
2022-09-26T13:16:54.744Z,4.72
2022-09-26T13:20:01.035Z,8.55
2022-09-26T13:23:11.070Z,7.85
2022-09-26T13:26:25.975Z,9.55
2022-09-26T13:29:33.696Z,7.20
2022-09-26T13:33:00.003Z,9.18
2022-09-26T13:36:02.218Z,8.43
2022-09-26T13:42:52.104Z,7.05
2022-09-26T13:46:07.675Z,9.80
2022-09-26T13:49:31.824Z,7.95
2022-09-26T13:53:06.838Z,6.70
2022-09-26T13:56:31.277Z,7.63
2022-09-26T13:59:35.998Z,7.13
2022-09-26T14:02:39.869Z,8.95
2022-09-26T14:05:41.715Z,9.15
2022-09-26T14:09:25.217Z,10.05
2022-09-26T14:12:53.278Z,11.73
2022-09-26T14:15:57.219Z,8.10
2022-09-26T14:19:20.615Z,11.68
2022-09-26T14:22:25.725Z,8.68
2022-09-26T14:25:45.677Z,8.00
2022-09-26T14:29:11.541Z,7.65
2022-09-26T14:32:39.340Z,9.57
2022-09-26T14:35:43.203Z,6.07
2022-09-26T14:38:48.565Z,9.68
2022-09-26T14:41:50.402Z,6.60
2022-09-26T14:44:57.316Z,9.40
2022-09-26T14:48:29.339Z,8.85
2022-09-26T14:51:35.991Z,8.43
2022-09-26T14:54:39.763Z,9.40
2022-09-26T14:57:41.566Z,8.80
2022-09-26T15:00:44.291Z,7.28
2022-09-26T15:04:03.259Z,12.23
2022-09-26T15:07:11.131Z,9.63
2022-09-26T15:10:13.287Z,9.48
2022-09-26T15:13:37.578Z,10.32
2022-09-26T15:16:42.540Z,12.18
2022-09-26T15:19:50.161Z,8.98
2022-09-26T15:22:52.921Z,12.02
2022-09-26T15:25:56.402Z,11.10
2022-09-26T15:28:58.290Z,12.65
2022-09-26T15:32:00.231Z,9.02
2022-09-26T15:35:02.303Z,10.15
2022-09-26T15:38:10.142Z,11.20
2022-09-26T15:41:17.304Z,8.20
2022-09-26T15:44:23.392Z,9.63
2022-09-26T15:47:28.868Z,10.82
2022-09-26T15:50:40.383Z,9.00
2022-09-26T15:53:58.014Z,14.38
2022-09-26T15:57:01.596Z,12.90
2022-09-26T16:00:04.135Z,9.88
2022-09-26T16:03:27.427Z,10.98
2022-09-26T16:06:30.745Z,13.68
2022-09-26T16:09:33.896Z,12.82
2022-09-26T16:12:38.447Z,12.77
2022-09-26T16:15:40.426Z,17.52
2022-09-26T16:18:47.502Z,11.15
2022-09-26T16:21:49.280Z,11.38
2022-09-26T16:24:51.671Z,16.73
2022-09-26T16:27:57.434Z,12.38
2022-09-26T16:31:10.404Z,9.18
2022-09-26T16:34:22.558Z,10.55
2022-09-26T16:37:24.373Z,8.75
2022-09-26T16:40:32.206Z,11.98
2022-09-26T16:43:34.464Z,12.10
2022-09-26T16:46:37.763Z,8.82
2022-09-26T16:49:43.039Z,9.25
2022-09-26T16:52:45.979Z,11.35
2022-09-26T16:55:47.810Z,10.57
2022-09-26T16:58:49.600Z,11.00
2022-09-26T17:01:55.663Z,7.60
2022-09-26T17:04:57.543Z,10.07
2022-09-26T17:07:59.335Z,9.70
2022-09-26T17:11:02.434Z,8.18
2022-09-26T17:14:04.260Z,7.75
2022-09-26T17:17:07.177Z,7.93
2022-09-26T17:20:12.442Z,7.60
2022-09-26T17:23:35.319Z,7.38
2022-09-26T17:26:36.706Z,6.15
2022-09-26T17:29:40.425Z,6.20
2022-09-26T17:32:44.208Z,11.38
2022-09-26T17:35:46.105Z,6.10
2022-09-26T17:38:48.000Z,6.88
2022-09-26T17:41:50.696Z,6.60
2022-09-26T17:44:52.540Z,7.38
2022-09-26T17:47:59.358Z,9.18
2022-09-26T17:51:02.196Z,6.60
2022-09-26T17:54:07.144Z,8.57
2022-09-26T17:57:12.761Z,8.35
2022-09-26T18:00:19.356Z,9.60
2022-09-26T18:03:25.799Z,6.30
2022-09-26T18:06:28.783Z,6.38
2022-09-26T18:09:32.685Z,8.05
2022-09-26T18:12:37.290Z,6.97
2022-09-26T18:15:39.120Z,7.45
2022-09-26T18:18:40.948Z,5.55
2022-09-26T18:21:42.879Z,7.57
2022-09-26T18:24:47.155Z,6.10
2022-09-26T18:27:53.266Z,7.13
2022-09-26T18:30:58.367Z,8.23
2022-09-26T18:34:01.244Z,7.43
2022-09-26T18:37:03.079Z,6.45
2022-09-26T18:40:05.353Z,6.18
2022-09-26T18:43:08.777Z,9.75
2022-09-26T18:46:16.204Z,8.18
2022-09-26T18:49:18.178Z,9.40
2022-09-26T18:52:20.227Z,10.05
2022-09-26T18:55:42.528Z,8.27
2022-09-26T18:58:47.761Z,13.55
2022-09-26T19:01:49.683Z,9.50
2022-09-26T19:04:51.647Z,8.90
2022-09-26T19:07:53.480Z,12.20
2022-09-26T19:10:55.571Z,10.80
2022-09-26T19:13:58.074Z,8.57
2022-09-26T19:20:02.259Z,9.85
2022-09-26T19:23:04.161Z,9.15
2022-09-26T19:26:06.368Z,10.80
2022-09-26T19:29:12.311Z,9.25
2022-09-26T19:32:18.571Z,13.43
2022-09-26T19:35:30.535Z,11.38
2022-09-26T19:38:32.342Z,8.90
2022-09-26T19:41:34.181Z,13.55
2022-09-26T19:44:36.018Z,13.20
2022-09-26T19:47:39.279Z,10.23
2022-09-26T19:50:41.100Z,11.48
2022-09-26T19:53:42.980Z,9.70
2022-09-26T19:56:45.685Z,11.00
2022-09-26T19:59:47.878Z,7.20
2022-09-26T20:02:52.751Z,8.70
2022-09-26T20:05:54.680Z,8.07
2022-09-26T20:09:01.727Z,7.63
2022-09-26T20:12:04.001Z,9.75
2022-09-26T20:15:06.221Z,6.13
2022-09-26T20:18:08.347Z,13.18
2022-09-26T20:21:10.240Z,10.30
2022-09-26T20:24:14.821Z,9.95
2022-09-26T20:27:18.849Z,4.57
2022-09-26T20:30:39.359Z,9.00
2022-09-26T20:33:41.236Z,9.98
2022-09-26T20:36:50.707Z,7.95
2022-09-26T20:39:52.616Z,7.22
2022-09-26T20:42:57.452Z,8.40
2022-09-26T20:45:59.510Z,11.55
2022-09-26T20:49:02.608Z,10.10
2022-09-26T20:52:08.815Z,10.80
2022-09-26T20:55:18.093Z,9.18
2022-09-26T20:58:19.978Z,5.93
2022-09-26T21:01:22.223Z,7.75
2022-09-26T21:04:29.915Z,8.48
2022-09-26T21:07:32.013Z,11.35
2022-09-26T21:10:33.872Z,5.65
2022-09-26T21:13:35.685Z,8.43
2022-09-26T21:16:44.144Z,7.28
2022-09-26T21:19:46.111Z,9.20
2022-09-26T21:23:08.619Z,9.57
2022-09-26T21:29:30.410Z,7.95
2022-09-26T21:32:32.223Z,8.23
2022-09-26T21:35:34.016Z,6.37
2022-09-26T21:38:35.824Z,7.30
2022-09-26T21:41:37.685Z,4.90
2022-09-26T21:44:42.242Z,8.80
2022-09-26T21:47:44.063Z,11.02
2022-09-26T21:50:48.871Z,8.20
2022-09-26T21:54:16.231Z,8.32
2022-09-26T21:57:23.725Z,6.85
2022-09-26T22:00:25.677Z,8.77
2022-09-26T22:03:27.766Z,6.15
2022-09-26T22:06:29.551Z,5.65
2022-09-26T22:09:31.365Z,6.05
2022-09-26T22:12:33.579Z,6.57
2022-09-26T22:15:35.439Z,7.80
2022-09-26T22:18:39.047Z,4.25
2022-09-26T22:21:40.893Z,9.68
2022-09-26T22:24:42.739Z,5.07
2022-09-26T22:27:44.735Z,5.25
2022-09-26T22:30:46.636Z,6.57
2022-09-26T22:33:48.486Z,8.27
2022-09-26T22:36:50.320Z,6.47
2022-09-26T22:39:53.104Z,5.28
2022-09-26T22:42:54.929Z,5.25
2022-09-26T22:46:04.284Z,5.87
2022-09-26T22:49:06.192Z,5.90
2022-09-26T22:52:08.055Z,9.45
2022-09-26T22:55:09.893Z,6.53
2022-09-26T22:58:11.859Z,5.55
2022-09-26T23:01:15.357Z,7.80
2022-09-26T23:04:17.609Z,9.60
2022-09-26T23:07:19.855Z,6.65
2022-09-26T23:10:22.327Z,7.22
2022-09-26T23:13:27.598Z,5.78
2022-09-26T23:16:29.509Z,7.05
2022-09-26T23:19:31.580Z,4.85
2022-09-26T23:22:33.366Z,9.10
2022-09-26T23:25:35.578Z,6.90
2022-09-26T23:28:37.399Z,5.95
2022-09-26T23:31:39.284Z,5.72
2022-09-26T23:34:41.154Z,7.03
2022-09-26T23:37:42.960Z,4.75
2022-09-26T23:40:44.842Z,5.53
2022-09-26T23:43:46.730Z,16.70
2022-09-26T23:46:48.553Z,8.17
2022-09-26T23:49:50.346Z,6.87
2022-09-26T23:52:52.145Z,9.13
2022-09-26T23:56:01.385Z,9.80
2022-09-26T23:59:03.223Z,5.97
